Time;durP1;ratioP1;P1;durP2;ratioP2;P2;SDS_P1;SDS_P2;PMS_P1;PMS_P2;Temp;Humidity;BMP_temperature;BMP_pressure;BME280_temperature;BME280_humidity;BME280_pressure;Samples;Min_cycle;Max_cycle;Signal;HPM_P1;HPM_P2
2022/07/23 00:00:15;;;;;;;9.70;5.63;;;17.20;99.90;;;;;;5042978;28;25099;-61
2022/07/23 00:02:41;;;;;;;10.65;6.53;;;17.20;99.90;;;;;;5046384;28;25136;-62
2022/07/23 00:05:07;;;;;;;10.13;5.97;;;17.10;99.90;;;;;;5039020;28;25108;-62
2022/07/23 00:07:33;;;;;;;8.93;6.13;;;17.20;99.90;;;;;;5046163;28;25158;-61
2022/07/23 00:09:58;;;;;;;10.68;6.63;;;17.20;99.90;;;;;;5041720;28;25060;-62
2022/07/23 00:12:24;;;;;;;13.13;6.72;;;17.20;99.90;;;;;;5040473;28;25051;-62
2022/07/23 00:14:50;;;;;;;9.38;5.75;;;17.20;99.90;;;;;;5049658;28;25060;-61
2022/07/23 00:17:15;;;;;;;10.10;5.57;;;17.10;99.90;;;;;;5041032;28;25084;-62
2022/07/23 00:19:41;;;;;;;7.03;5.18;;;17.10;99.90;;;;;;5041968;28;25100;-62
2022/07/23 00:22:06;;;;;;;7.40;6.00;;;17.20;99.90;;;;;;5045384;28;24805;-62
2022/07/23 00:24:33;;;;;;;9.40;6.78;;;17.10;99.90;;;;;;5042889;28;25133;-63
2022/07/23 00:26:58;;;;;;;7.78;5.95;;;17.00;99.90;;;;;;5046004;28;25059;-63
2022/07/23 00:29:24;;;;;;;7.18;5.90;;;16.90;99.90;;;;;;5043626;28;25069;-63
2022/07/23 00:31:49;;;;;;;7.90;6.57;;;17.00;99.90;;;;;;5041810;28;25082;-62
2022/07/23 00:34:15;;;;;;;9.07;6.20;;;17.00;99.90;;;;;;5042213;28;25071;-63
2022/07/23 00:36:41;;;;;;;9.32;6.53;;;17.00;99.90;;;;;;5043087;28;25082;-62
2022/07/23 00:39:06;;;;;;;9.13;6.35;;;16.90;99.90;;;;;;5042613;28;25053;-61
2022/07/23 00:41:32;;;;;;;10.23;5.82;;;16.80;99.90;;;;;;5054357;28;25122;-63
2022/07/23 00:44:22;;;;;;;11.00;6.45;;;16.80;99.90;;;;;;5047117;28;25066;-63
2022/07/23 00:46:52;;;;;;;10.80;6.60;;;16.80;99.90;;;;;;5054839;28;25074;-63
2022/07/23 00:49:18;;;;;;;8.43;6.38;;;16.70;99.90;;;;;;5044955;28;25065;-62
2022/07/23 00:51:44;;;;;;;8.63;6.47;;;16.80;99.90;;;;;;5038530;28;25063;-61
2022/07/23 00:54:10;;;;;;;13.25;7.40;;;16.90;99.90;;;;;;5039730;28;25055;-62
2022/07/23 00:56:35;;;;;;;13.70;7.07;;;16.90;99.90;;;;;;5041533;28;25061;-62
2022/07/23 00:59:01;;;;;;;9.57;7.43;;;16.90;99.90;;;;;;5039820;28;25086;-62
2022/07/23 01:01:27;;;;;;;10.05;7.30;;;16.70;99.90;;;;;;5039042;28;25066;-63
2022/07/23 01:03:53;;;;;;;10.02;7.32;;;16.80;99.90;;;;;;5044997;28;25061;-63
2022/07/23 01:06:18;;;;;;;14.80;6.93;;;16.70;99.90;;;;;;5045754;28;25127;-63
2022/07/23 01:08:44;;;;;;;9.27;6.30;;;16.90;99.90;;;;;;5047492;28;25071;-63
2022/07/23 01:11:11;;;;;;;10.77;6.97;;;17.10;99.90;;;;;;5040729;28;25128;-61
2022/07/23 01:13:42;;;;;;;9.55;6.75;;;17.10;99.90;;;;;;5045543;28;25062;-60
2022/07/23 01:16:07;;;;;;;8.10;6.50;;;17.10;99.90;;;;;;5038287;28;25101;-61
2022/07/23 01:18:33;;;;;;;11.60;7.28;;;17.00;99.90;;;;;;5051348;28;25107;-62
2022/07/23 01:20:58;;;;;;;7.53;6.63;;;16.80;99.90;;;;;;5045296;28;25146;-62
2022/07/23 01:23:24;;;;;;;9.93;6.85;;;16.90;99.90;;;;;;5035691;28;25063;-62
2022/07/23 01:25:53;;;;;;;9.40;6.70;;;16.80;99.90;;;;;;5046068;28;25096;-61
2022/07/23 01:28:19;;;;;;;12.23;7.45;;;16.70;99.90;;;;;;5036192;28;25059;-61
2022/07/23 01:30:47;;;;;;;9.23;6.60;;;16.60;99.90;;;;;;5045662;28;25070;-61
2022/07/23 01:33:13;;;;;;;12.20;6.97;;;16.60;99.90;;;;;;5043749;28;25154;-62
2022/07/23 01:35:39;;;;;;;9.90;7.18;;;16.70;99.90;;;;;;5046958;28;25079;-61
2022/07/23 01:38:04;;;;;;;9.18;7.53;;;16.50;99.90;;;;;;5038290;28;25076;-61
2022/07/23 01:40:30;;;;;;;13.13;8.00;;;16.50;99.90;;;;;;5044369;28;25073;-62
2022/07/23 01:42:55;;;;;;;13.35;7.97;;;16.50;99.90;;;;;;5042005;28;25154;-63
2022/07/23 01:45:21;;;;;;;11.93;7.18;;;16.50;99.90;;;;;;5047711;28;25077;-62
2022/07/23 01:47:48;;;;;;;9.95;8.02;;;16.50;99.90;;;;;;5049020;28;25063;-62
2022/07/23 01:50:13;;;;;;;10.15;8.25;;;16.60;99.90;;;;;;5043179;28;25103;-62
2022/07/23 01:52:39;;;;;;;13.82;8.02;;;16.60;99.90;;;;;;5027165;28;25085;-62
2022/07/23 01:55:05;;;;;;;12.43;8.27;;;16.50;99.90;;;;;;5033951;28;25096;-62
2022/07/23 01:57:31;;;;;;;9.55;7.82;;;16.60;99.90;;;;;;5043467;28;25080;-61
2022/07/23 01:59:57;;;;;;;10.80;7.88;;;16.60;99.90;;;;;;5038622;28;25058;-63
2022/07/23 02:02:22;;;;;;;11.30;8.30;;;16.70;99.90;;;;;;5054435;28;25095;-61
2022/07/23 02:04:48;;;;;;;14.45;7.80;;;16.60;99.90;;;;;;5038786;28;25144;-63
2022/07/23 02:07:13;;;;;;;10.90;7.95;;;16.50;99.90;;;;;;5054813;28;25101;-62
2022/07/23 02:09:39;;;;;;;10.77;6.80;;;16.60;99.90;;;;;;5036742;28;25076;-62
2022/07/23 02:12:05;;;;;;;11.48;7.43;;;16.60;99.90;;;;;;5045645;28;25061;-62
2022/07/23 02:14:30;;;;;;;11.20;6.68;;;16.60;99.90;;;;;;5040989;28;25077;-63
2022/07/23 02:16:56;;;;;;;14.48;7.53;;;16.70;99.90;;;;;;5059679;28;25136;-62
2022/07/23 02:19:22;;;;;;;12.40;8.85;;;16.70;99.90;;;;;;5046925;28;25070;-62
2022/07/23 02:21:47;;;;;;;10.07;8.48;;;16.50;99.90;;;;;;5044331;28;25109;-62
2022/07/23 02:24:13;;;;;;;11.15;7.80;;;16.50;99.90;;;;;;5052004;28;25074;-63
2022/07/23 02:26:39;;;;;;;12.05;7.72;;;16.40;99.90;;;;;;5048193;28;25160;-61
2022/07/23 02:29:04;;;;;;;12.73;7.78;;;16.40;99.90;;;;;;5039017;28;25140;-62
2022/07/23 02:31:30;;;;;;;11.32;7.53;;;16.50;99.90;;;;;;5044138;28;25130;-61
2022/07/23 02:33:56;;;;;;;10.57;8.18;;;16.50;99.90;;;;;;5043026;28;25089;-62
2022/07/23 02:36:22;;;;;;;9.15;7.13;;;16.40;99.90;;;;;;5038960;28;25104;-63
2022/07/23 02:38:47;;;;;;;11.38;8.18;;;16.40;99.90;;;;;;5070596;28;25070;-63
2022/07/23 02:41:13;;;;;;;9.52;7.93;;;16.40;99.90;;;;;;5047564;28;25068;-63
2022/07/23 02:43:39;;;;;;;16.73;9.15;;;16.40;99.90;;;;;;5053422;28;25165;-62
2022/07/23 02:46:04;;;;;;;13.60;8.48;;;16.40;99.90;;;;;;5057888;28;25110;-63
2022/07/23 02:48:30;;;;;;;14.02;8.20;;;16.30;99.90;;;;;;5047405;28;25133;-66
2022/07/23 02:50:56;;;;;;;10.02;8.15;;;16.40;99.90;;;;;;5052855;28;25043;-62
2022/07/23 02:53:25;;;;;;;12.70;8.13;;;16.30;99.90;;;;;;5051620;28;25065;-62
2022/07/23 02:55:51;;;;;;;12.80;8.52;;;16.30;99.90;;;;;;5044036;28;25111;-62
2022/07/23 02:58:17;;;;;;;11.40;7.90;;;16.40;99.90;;;;;;5038172;28;25095;-63
2022/07/23 03:00:42;;;;;;;9.10;7.55;;;16.20;99.90;;;;;;5044322;28;25046;-62
2022/07/23 03:03:08;;;;;;;11.30;8.35;;;16.20;99.90;;;;;;5043881;28;25054;-63
2022/07/23 03:05:34;;;;;;;13.35;8.50;;;16.20;99.90;;;;;;5050727;28;25046;-62
2022/07/23 03:08:00;;;;;;;14.93;9.15;;;16.20;99.90;;;;;;5046791;28;25115;-63
2022/07/23 03:10:25;;;;;;;13.48;9.10;;;16.20;99.90;;;;;;5046930;28;25083;-63
2022/07/23 03:12:51;;;;;;;13.93;9.00;;;16.30;99.90;;;;;;5044596;28;25087;-63
2022/07/23 03:15:17;;;;;;;11.90;7.95;;;16.20;99.90;;;;;;5040448;28;25064;-62
2022/07/23 03:17:43;;;;;;;9.82;8.18;;;16.20;99.90;;;;;;5058274;28;25072;-62
2022/07/23 03:20:09;;;;;;;17.90;9.15;;;16.10;99.90;;;;;;5048338;28;25166;-63
2022/07/23 03:22:34;;;;;;;11.05;8.95;;;16.10;99.90;;;;;;5047826;28;25119;-63
2022/07/23 03:25:00;;;;;;;12.98;8.80;;;16.10;99.90;;;;;;5045304;28;25077;-63
2022/07/23 03:27:29;;;;;;;12.18;8.57;;;16.00;99.90;;;;;;5038845;28;25074;-62
2022/07/23 03:29:57;;;;;;;13.55;8.18;;;16.10;99.90;;;;;;5045125;28;25144;-63
2022/07/23 03:32:23;;;;;;;11.07;8.07;;;16.10;99.90;;;;;;5041777;28;25102;-63
2022/07/23 03:34:49;;;;;;;16.20;8.82;;;16.10;99.90;;;;;;5039080;28;25163;-63
2022/07/23 03:37:15;;;;;;;16.20;9.35;;;16.20;99.90;;;;;;5043660;28;25065;-64
2022/07/23 03:39:41;;;;;;;10.68;8.32;;;16.20;99.90;;;;;;5041473;28;25150;-63
2022/07/23 03:42:07;;;;;;;11.57;8.15;;;16.20;99.90;;;;;;5043980;28;25083;-63
2022/07/23 03:44:33;;;;;;;10.90;7.95;;;16.20;99.90;;;;;;5040104;28;25067;-62
2022/07/23 03:46:58;;;;;;;11.40;7.47;;;16.20;99.90;;;;;;5044890;28;25145;-62
2022/07/23 03:49:24;;;;;;;9.45;7.80;;;16.30;99.90;;;;;;5050939;28;25145;-62
2022/07/23 03:51:50;;;;;;;12.40;7.65;;;16.30;99.90;;;;;;5044184;28;25084;-63
2022/07/23 03:54:15;;;;;;;8.60;7.45;;;16.30;99.90;;;;;;5038654;28;25168;-62
2022/07/23 03:56:42;;;;;;;9.13;7.45;;;16.30;99.90;;;;;;5049687;28;25142;-63
2022/07/23 03:59:08;;;;;;;10.02;7.10;;;16.20;99.90;;;;;;5048860;28;25077;-63
2022/07/23 04:01:34;;;;;;;10.20;7.07;;;16.10;99.90;;;;;;5038242;28;25064;-63
2022/07/23 04:03:59;;;;;;;16.15;7.68;;;16.20;99.90;;;;;;5044743;28;25049;-63
2022/07/23 04:06:25;;;;;;;10.93;7.05;;;16.20;99.90;;;;;;5046325;28;25104;-62
2022/07/23 04:08:50;;;;;;;14.85;6.78;;;16.20;99.90;;;;;;5040065;28;25078;-61
2022/07/23 04:11:16;;;;;;;14.32;7.28;;;16.20;99.90;;;;;;5040146;28;25057;-63
2022/07/23 04:13:41;;;;;;;9.50;7.57;;;16.20;99.90;;;;;;5039395;28;25131;-63
2022/07/23 04:16:07;;;;;;;9.85;6.47;;;16.40;99.90;;;;;;5042106;28;25053;-63
2022/07/23 04:18:33;;;;;;;9.00;6.97;;;16.40;99.90;;;;;;5042294;28;25058;-62
2022/07/23 04:20:58;;;;;;;10.50;7.07;;;16.40;99.90;;;;;;5054953;28;25055;-62
2022/07/23 04:23:24;;;;;;;14.18;7.25;;;16.40;99.90;;;;;;5043836;28;25056;-63
2022/07/23 04:25:49;;;;;;;7.57;6.75;;;16.40;99.90;;;;;;5043539;28;25059;-63
2022/07/23 04:28:15;;;;;;;11.27;7.15;;;16.40;99.90;;;;;;5044638;28;25059;-63
2022/07/23 04:30:41;;;;;;;12.68;7.45;;;16.40;99.90;;;;;;5045039;28;25171;-63
2022/07/23 04:33:07;;;;;;;8.82;7.40;;;16.40;99.90;;;;;;5046233;28;25147;-63
2022/07/23 04:35:36;;;;;;;11.05;6.88;;;16.40;99.90;;;;;;5041119;28;25060;-63
2022/07/23 04:38:02;;;;;;;10.77;7.20;;;16.40;99.90;;;;;;5020749;28;25060;-62
2022/07/23 04:40:28;;;;;;;10.60;7.07;;;16.50;99.90;;;;;;5042485;28;25141;-63
2022/07/23 04:42:53;;;;;;;11.38;6.93;;;16.60;99.90;;;;;;5043343;28;25069;-62
2022/07/23 04:45:19;;;;;;;10.52;6.85;;;16.60;99.90;;;;;;5044828;28;25092;-64
2022/07/23 04:47:45;;;;;;;8.60;6.05;;;16.60;99.90;;;;;;5038514;28;25064;-63
2022/07/23 04:50:10;;;;;;;9.18;6.47;;;16.70;99.90;;;;;;5042815;28;25156;-63
2022/07/23 04:52:36;;;;;;;11.40;6.72;;;16.70;99.90;;;;;;5044533;28;25089;-62
2022/07/23 04:55:02;;;;;;;11.18;6.03;;;16.70;99.90;;;;;;5034536;28;25171;-63
2022/07/23 04:57:28;;;;;;;10.13;5.78;;;16.70;99.90;;;;;;5054091;28;25058;-64
2022/07/23 04:59:53;;;;;;;10.65;7.07;;;16.70;99.90;;;;;;5048804;28;25135;-63
2022/07/23 05:02:19;;;;;;;14.50;6.97;;;16.80;99.90;;;;;;5045055;28;25072;-64
2022/07/23 05:04:44;;;;;;;11.82;6.93;;;16.70;99.90;;;;;;5047918;28;25063;-63
2022/07/23 05:07:10;;;;;;;11.10;7.13;;;16.80;99.90;;;;;;5048050;28;25075;-64
2022/07/23 05:09:36;;;;;;;7.43;6.45;;;16.70;99.90;;;;;;5044721;28;25047;-63
2022/07/23 05:12:01;;;;;;;10.55;6.93;;;16.70;99.90;;;;;;5040020;28;25155;-64
2022/07/23 05:14:27;;;;;;;7.63;6.47;;;16.80;99.90;;;;;;5034355;28;25062;-63
2022/07/23 05:16:53;;;;;;;8.88;6.03;;;16.70;99.90;;;;;;5074015;28;25080;-67
2022/07/23 05:19:19;;;;;;;11.00;6.50;;;16.70;99.90;;;;;;5041601;28;25097;-64
2022/07/23 05:21:45;;;;;;;10.38;6.05;;;16.80;99.90;;;;;;5039317;28;25086;-64
2022/07/23 05:24:10;;;;;;;11.30;6.15;;;17.10;99.90;;;;;;5044161;28;25058;-63
2022/07/23 05:26:36;;;;;;;13.35;5.53;;;17.20;99.90;;;;;;5034593;28;25058;-63
2022/07/23 05:29:02;;;;;;;8.98;6.25;;;17.10;99.90;;;;;;5042599;28;25068;-64
2022/07/23 05:31:27;;;;;;;7.63;5.65;;;17.00;99.90;;;;;;5044385;28;25064;-63
2022/07/23 05:33:53;;;;;;;9.98;5.80;;;17.10;99.90;;;;;;5040665;28;25081;-64
2022/07/23 05:36:18;;;;;;;11.07;5.18;;;17.20;99.90;;;;;;5040798;28;25073;-62
2022/07/23 05:38:44;;;;;;;9.98;6.00;;;17.20;99.90;;;;;;5036144;28;25110;-64
2022/07/23 05:41:09;;;;;;;7.55;5.65;;;17.20;99.90;;;;;;5039028;28;25073;-63
2022/07/23 05:43:35;;;;;;;10.95;6.30;;;17.40;99.90;;;;;;5042772;28;25094;-65
2022/07/23 05:46:00;;;;;;;11.57;5.53;;;17.20;99.90;;;;;;5030248;28;25097;-62
2022/07/23 05:48:26;;;;;;;8.82;5.20;;;17.30;99.90;;;;;;5039138;28;25185;-63
2022/07/23 05:50:52;;;;;;;11.10;5.28;;;17.40;99.90;;;;;;5042334;28;25069;-63
2022/07/23 05:53:17;;;;;;;7.95;5.50;;;17.50;99.90;;;;;;5051015;28;25060;-63
2022/07/23 05:55:43;;;;;;;6.55;5.55;;;17.60;99.90;;;;;;5043341;28;25069;-63
2022/07/23 05:58:09;;;;;;;7.47;6.20;;;17.70;99.90;;;;;;5042271;28;25079;-63
2022/07/23 06:00:34;;;;;;;9.27;5.80;;;17.70;99.90;;;;;;5033394;28;25074;-64
2022/07/23 06:03:00;;;;;;;9.73;5.85;;;17.80;99.90;;;;;;5038251;28;25150;-62
2022/07/23 06:05:26;;;;;;;11.18;6.47;;;17.90;99.90;;;;;;5038742;28;25082;-63
2022/07/23 06:07:52;;;;;;;8.30;6.07;;;17.90;99.90;;;;;;5042809;28;25122;-65
2022/07/23 06:10:18;;;;;;;9.65;5.35;;;18.10;99.90;;;;;;5036287;28;25072;-63
2022/07/23 06:12:44;;;;;;;6.65;5.00;;;18.10;99.90;;;;;;5041756;28;25163;-64
2022/07/23 06:15:10;;;;;;;10.85;5.07;;;18.20;99.90;;;;;;5039430;28;25129;-63
2022/07/23 06:17:38;;;;;;;8.38;4.93;;;18.50;99.90;;;;;;5046297;28;25151;-63
2022/07/23 06:20:08;;;;;;;7.68;5.28;;;18.40;99.90;;;;;;5035551;28;25064;-63
2022/07/23 06:22:34;;;;;;;8.27;4.32;;;18.30;99.90;;;;;;5035709;28;25060;-63
2022/07/23 06:24:59;;;;;;;6.57;5.15;;;18.40;99.90;;;;;;5038718;28;25076;-64
2022/07/23 06:27:25;;;;;;;11.50;4.40;;;18.60;99.90;;;;;;5040017;28;25061;-61
2022/07/23 06:29:50;;;;;;;9.27;4.88;;;18.90;99.90;;;;;;5041480;28;25067;-62
2022/07/23 06:32:16;;;;;;;7.93;3.92;;;18.90;99.90;;;;;;5038093;28;25066;-62
2022/07/23 06:34:42;;;;;;;6.88;4.22;;;19.30;99.90;;;;;;5042115;28;25135;-64
2022/07/23 06:37:07;;;;;;;8.25;3.95;;;19.10;99.90;;;;;;5038671;28;25098;-62
2022/07/23 06:39:33;;;;;;;8.40;4.45;;;18.80;99.90;;;;;;5033608;28;25099;-62
2022/07/23 06:41:58;;;;;;;9.32;4.40;;;18.80;99.90;;;;;;5042225;28;25155;-63
2022/07/23 06:44:24;;;;;;;6.80;4.28;;;18.80;99.90;;;;;;5026654;28;25076;-63
2022/07/23 06:46:49;;;;;;;7.03;3.90;;;18.50;99.90;;;;;;5038757;28;25123;-62
2022/07/23 06:49:15;;;;;;;8.27;4.25;;;18.30;99.90;;;;;;5035446;28;25069;-62
2022/07/23 06:51:40;;;;;;;5.28;3.90;;;18.50;99.90;;;;;;5040344;28;25091;-62
2022/07/23 06:54:06;;;;;;;9.80;4.13;;;18.40;99.90;;;;;;5039822;28;25099;-64
2022/07/23 06:56:32;;;;;;;3.97;3.40;;;18.60;99.90;;;;;;5042990;28;25088;-61
2022/07/23 06:58:57;;;;;;;6.32;3.80;;;18.80;99.90;;;;;;5041488;28;25074;-62
2022/07/23 07:01:23;;;;;;;4.45;2.88;;;19.10;99.90;;;;;;5042386;28;25067;-63
2022/07/23 07:03:48;;;;;;;9.13;3.50;;;19.40;99.90;;;;;;5036456;28;25081;-63
2022/07/23 07:06:14;;;;;;;4.38;3.05;;;19.50;99.90;;;;;;5041525;28;25073;-62
2022/07/23 07:08:41;;;;;;;7.85;3.58;;;19.60;99.90;;;;;;5043518;28;25080;-65
2022/07/23 07:11:08;;;;;;;6.45;3.55;;;19.40;99.90;;;;;;5045488;28;25114;-62
2022/07/23 07:13:33;;;;;;;9.48;3.15;;;19.40;99.90;;;;;;5037475;28;25071;-62
2022/07/23 07:15:59;;;;;;;5.47;3.58;;;19.50;99.90;;;;;;5039584;28;25140;-62
2022/07/23 07:18:24;;;;;;;9.77;3.80;;;19.80;99.90;;;;;;5040580;28;25132;-61
2022/07/23 07:20:50;;;;;;;6.63;3.05;;;19.90;99.90;;;;;;5038937;28;25135;-64
2022/07/23 07:23:15;;;;;;;5.43;3.38;;;19.90;99.90;;;;;;5044176;28;25072;-63
2022/07/23 07:25:41;;;;;;;6.80;3.15;;;20.00;99.90;;;;;;5040220;28;25058;-63
2022/07/23 07:28:06;;;;;;;5.95;3.33;;;19.90;99.90;;;;;;5029693;28;25143;-64
2022/07/23 07:30:32;;;;;;;11.57;4.80;;;20.10;99.90;;;;;;5039726;28;25069;-62
2022/07/23 07:32:57;;;;;;;7.00;3.67;;;19.90;99.90;;;;;;5044962;28;25061;-62
2022/07/23 07:35:24;;;;;;;5.38;3.42;;;20.20;99.90;;;;;;5053240;28;25068;-63
2022/07/23 07:37:49;;;;;;;6.55;3.60;;;20.80;99.90;;;;;;5047148;28;25109;-64
2022/07/23 07:40:15;;;;;;;9.00;4.05;;;21.40;99.90;;;;;;5047546;28;25044;-62
2022/07/23 07:42:48;;;;;;;6.15;4.35;;;21.60;99.90;;;;;;5060182;28;25074;-62
2022/07/23 07:45:14;;;;;;;7.88;3.90;;;20.60;99.90;;;;;;5048040;28;25107;-63
2022/07/23 07:47:40;;;;;;;8.35;3.90;;;20.20;99.90;;;;;;5047638;28;25147;-62
2022/07/23 07:50:07;;;;;;;3.90;3.40;;;20.50;99.90;;;;;;5039205;28;25071;-62
2022/07/23 07:52:34;;;;;;;7.47;4.00;;;20.70;99.90;;;;;;5034835;28;25124;-63
2022/07/23 07:54:59;;;;;;;9.02;4.18;;;20.70;99.90;;;;;;5041272;28;25095;-63
2022/07/23 07:57:25;;;;;;;7.03;3.63;;;20.40;99.90;;;;;;5035653;28;25096;-62
2022/07/23 07:59:50;;;;;;;4.90;3.53;;;20.10;99.90;;;;;;5034106;28;25087;-63
2022/07/23 08:02:16;;;;;;;9.15;3.58;;;20.20;99.90;;;;;;5040027;28;25136;-66
2022/07/23 08:04:41;;;;;;;8.13;3.90;;;20.60;99.90;;;;;;5048397;28;25061;-62
2022/07/23 08:07:07;;;;;;;5.88;3.97;;;20.80;99.90;;;;;;5042259;28;25093;-63
2022/07/23 08:09:32;;;;;;;13.15;4.93;;;21.10;99.90;;;;;;5050979;28;25063;-63
2022/07/23 08:11:57;;;;;;;6.25;3.63;;;21.70;99.90;;;;;;5048083;28;25047;-63
2022/07/23 08:14:23;;;;;;;6.57;3.97;;;21.90;99.90;;;;;;5039469;28;25129;-63
2022/07/23 08:16:48;;;;;;;6.63;3.78;;;22.30;99.90;;;;;;5039206;28;25063;-64
2022/07/23 08:19:14;;;;;;;5.78;3.72;;;21.90;99.90;;;;;;5039103;28;25057;-63
2022/07/23 08:21:40;;;;;;;9.10;3.85;;;21.50;99.90;;;;;;5050754;28;25074;-63
2022/07/23 08:24:05;;;;;;;10.65;4.93;;;21.60;99.90;;;;;;5040008;28;25095;-62
2022/07/23 08:26:31;;;;;;;4.95;3.35;;;21.80;99.90;;;;;;5044087;28;25094;-65
2022/07/23 08:28:56;;;;;;;5.75;3.72;;;21.90;99.90;;;;;;5038124;28;25074;-64
2022/07/23 08:31:22;;;;;;;7.05;3.63;;;22.40;99.90;;;;;;5040180;22;25061;-67
2022/07/23 08:33:48;;;;;;;7.10;4.28;;;22.50;99.90;;;;;;5015938;28;25054;-68
2022/07/23 08:36:13;;;;;;;6.82;4.15;;;22.30;99.90;;;;;;5026184;28;25077;-65
2022/07/23 08:38:39;;;;;;;5.65;4.15;;;22.30;99.90;;;;;;5016896;28;25056;-67
2022/07/23 08:41:07;;;;;;;5.55;3.63;;;22.30;99.90;;;;;;5015687;28;25098;-66
2022/07/23 08:43:34;;;;;;;6.82;4.18;;;22.30;99.90;;;;;;5015209;28;25064;-66
2022/07/23 08:46:01;;;;;;;5.32;3.90;;;22.20;99.90;;;;;;5013694;28;25085;-66
2022/07/23 08:48:36;;;;;;;8.15;4.55;;;22.10;99.90;;;;;;5018934;28;25098;-66
2022/07/23 08:51:03;;;;;;;4.28;3.13;;;21.60;99.90;;;;;;5016659;28;25068;-66
2022/07/23 08:53:29;;;;;;;7.65;3.70;;;21.70;99.90;;;;;;5024756;28;25098;-67
2022/07/23 08:55:57;;;;;;;6.45;4.45;;;22.30;99.90;;;;;;5025119;28;25090;-66
2022/07/23 08:58:24;;;;;;;5.20;3.70;;;22.20;99.90;;;;;;5025019;28;25101;-69
2022/07/23 09:00:50;;;;;;;6.53;4.35;;;22.00;99.90;;;;;;5031470;28;25100;-67
2022/07/23 09:03:27;;;;;;;6.38;4.50;;;22.50;99.90;;;;;;5023721;28;25142;-68
2022/07/23 09:05:53;;;;;;;5.18;4.72;;;21.80;99.90;;;;;;5021465;28;25061;-67
2022/07/23 09:08:21;;;;;;;9.52;5.00;;;21.80;99.90;;;;;;5020960;28;25137;-68
2022/07/23 09:10:47;;;;;;;6.28;3.42;;;21.90;99.90;;;;;;5025838;28;25124;-68
2022/07/23 09:13:31;;;;;;;7.13;4.70;;;22.20;99.90;;;;;;5021942;28;25139;-66
2022/07/23 09:16:03;;;;;;;9.20;4.88;;;22.00;99.90;;;;;;5025246;28;25074;-66
2022/07/23 09:18:37;;;;;;;8.07;4.82;;;21.80;99.90;;;;;;5024686;28;25088;-68
2022/07/23 09:21:22;;;;;;;6.60;3.85;;;21.70;99.90;;;;;;5023155;28;25110;-67
2022/07/23 09:23:54;;;;;;;5.50;3.63;;;21.90;99.90;;;;;;5022318;28;25070;-68
2022/07/23 09:26:20;;;;;;;;;;;22.70;99.90;;;;;;5013291;28;25080;-67
2022/07/23 09:28:54;;;;;;;7.13;3.60;;;23.00;99.90;;;;;;5018386;28;25089;-68
2022/07/23 09:31:20;;;;;;;6.05;3.92;;;23.70;99.90;;;;;;5011893;28;25063;-69
2022/07/23 09:33:46;;;;;;;6.20;4.10;;;24.40;99.90;;;;;;5020434;28;25100;-67
2022/07/23 09:36:13;;;;;;;8.45;3.70;;;24.40;99.90;;;;;;5023463;28;25105;-67
2022/07/23 09:38:49;;;;;;;9.40;4.32;;;24.20;99.90;;;;;;5016922;28;25064;-68
2022/07/23 09:41:14;;;;;;;5.07;4.07;;;24.10;99.90;;;;;;5025445;28;25094;-70
2022/07/23 09:43:40;;;;;;;5.03;3.20;;;24.00;99.90;;;;;;5024176;28;25108;-69
2022/07/23 09:46:26;;;;;;;4.97;3.17;;;24.10;99.90;;;;;;5023360;28;25131;-68
2022/07/23 09:48:58;;;;;;;7.22;3.50;;;24.20;99.90;;;;;;5022708;28;25065;-66
2022/07/23 09:51:36;;;;;;;;;;;24.10;99.90;;;;;;5023798;28;25061;-66
2022/07/23 09:54:02;;;;;;;6.72;4.18;;;24.00;99.90;;;;;;5029893;28;25051;-66
2022/07/23 09:56:29;;;;;;;6.68;4.65;;;23.90;99.90;;;;;;5023866;28;25059;-68
2022/07/23 09:59:03;;;;;;;7.72;4.43;;;23.50;99.90;;;;;;5027023;28;25104;-67
2022/07/23 10:01:30;;;;;;;8.52;4.60;;;23.70;99.90;;;;;;5024421;28;25066;-67
2022/07/23 10:03:56;;;;;;;12.23;3.53;;;24.10;99.90;;;;;;5029019;28;25056;-67
2022/07/23 10:06:22;;;;;;;6.35;3.20;;;24.30;99.90;;;;;;5027368;28;25052;-67
2022/07/23 10:08:49;;;;;;;4.10;3.33;;;24.00;99.90;;;;;;5023661;28;25149;-67
2022/07/23 10:11:16;;;;;;;5.53;2.92;;;24.20;99.90;;;;;;5020350;28;25070;-69
2022/07/23 10:16:11;;;;;;;5.22;3.10;;;24.30;99.90;;;;;;5017840;28;25129;-66
2022/07/23 10:18:37;;;;;;;7.43;3.53;;;24.80;99.90;;;;;;5025449;28;25065;-68
2022/07/23 10:21:07;;;;;;;7.45;3.10;;;24.90;99.90;;;;;;5025811;28;25071;-68
2022/07/23 10:23:39;;;;;;;4.13;2.97;;;25.10;99.90;;;;;;5016422;28;25060;-67
2022/07/23 10:26:20;;;;;;;3.47;2.83;;;24.60;99.90;;;;;;5023066;28;25093;-67
2022/07/23 10:29:00;;;;;;;3.63;2.70;;;24.40;99.90;;;;;;5020475;28;25072;-67
2022/07/23 10:31:42;;;;;;;6.45;3.10;;;24.80;99.90;;;;;;5016310;28;25082;-68
2022/07/23 10:34:14;;;;;;;5.43;3.17;;;24.70;99.90;;;;;;5018324;28;25161;-67
2022/07/23 10:36:45;;;;;;;6.00;3.17;;;24.00;99.90;;;;;;5016294;28;25131;-66
2022/07/23 10:39:17;;;;;;;5.68;3.78;;;24.00;99.90;;;;;;5037499;28;25179;-66
2022/07/23 10:41:43;;;;;;;5.93;3.17;;;23.70;99.90;;;;;;5035043;28;25074;-67
2022/07/23 10:44:13;;;;;;;6.88;3.03;;;24.00;99.90;;;;;;5024172;28;25062;-67
2022/07/23 10:49:40;;;;;;;3.97;2.47;;;24.10;99.90;;;;;;5023060;28;25173;-68
2022/07/23 10:52:14;;;;;;;6.10;3.70;;;24.30;99.90;;;;;;5016481;28;25095;-68
2022/07/23 10:54:49;;;;;;;4.80;4.03;;;24.70;99.90;;;;;;5028271;28;25077;-69
2022/07/23 10:57:16;;;;;;;5.20;3.55;;;25.00;99.90;;;;;;5031899;28;25081;-69
2022/07/23 11:00:00;;;;;;;6.35;3.17;;;25.50;99.90;;;;;;5024243;28;25084;-67
2022/07/23 11:02:27;;;;;;;5.32;2.90;;;25.70;99.90;;;;;;5017232;28;25151;-64
2022/07/23 11:04:53;;;;;;;6.60;3.42;;;25.50;99.90;;;;;;5019771;28;25091;-65
2022/07/23 11:07:19;;;;;;;6.88;3.10;;;25.70;99.90;;;;;;5028071;28;25085;-67
2022/07/23 11:09:48;;;;;;;4.30;3.42;;;25.30;99.90;;;;;;5021136;28;25068;-67
2022/07/23 11:12:14;;;;;;;5.88;3.78;;;25.30;99.90;;;;;;5025325;28;25099;-66
2022/07/23 11:14:59;;;;;;;6.53;3.22;;;25.30;99.90;;;;;;5015953;28;25077;-69
2022/07/23 11:17:25;;;;;;;4.40;3.00;;;25.00;99.90;;;;;;5022552;28;25070;-67
2022/07/23 11:20:11;;;;;;;5.25;3.10;;;25.30;99.90;;;;;;5016979;28;25152;-67
2022/07/23 11:22:43;;;;;;;5.03;3.70;;;25.20;99.90;;;;;;5007589;28;25145;-67
2022/07/23 11:25:13;;;;;;;2.70;2.50;;;25.40;99.90;;;;;;5019385;28;25112;-67
2022/07/23 11:27:44;;;;;;;8.68;3.63;;;25.20;99.90;;;;;;5015232;28;25147;-67
2022/07/23 11:30:28;;;;;;;7.97;4.32;;;25.00;99.90;;;;;;5013673;28;25103;-66
2022/07/23 11:33:15;;;;;;;4.07;3.33;;;24.40;99.90;;;;;;5019710;28;25108;-67
2022/07/23 11:35:49;;;;;;;5.85;3.00;;;24.30;99.90;;;;;;5017082;28;25077;-67
2022/07/23 11:38:16;;;;;;;6.53;3.08;;;24.00;99.90;;;;;;5017028;28;25153;-68
2022/07/23 11:40:49;;;;;;;5.00;3.50;;;23.70;99.90;;;;;;5029647;28;25138;-68
2022/07/23 11:43:15;;;;;;;6.80;3.47;;;23.90;99.90;;;;;;5018209;28;25486;-68
2022/07/23 11:45:43;;;;;;;4.32;3.10;;;24.40;99.90;;;;;;5025681;28;25075;-68
2022/07/23 11:48:15;;;;;;;4.78;3.35;;;25.20;99.90;;;;;;5015646;28;25090;-67
2022/07/23 11:50:41;;;;;;;7.03;3.03;;;25.30;99.90;;;;;;5019146;28;25060;-68
2022/07/23 11:53:07;;;;;;;5.95;3.78;;;25.10;99.90;;;;;;5018007;28;25079;-67
2022/07/23 11:55:32;;;;;;;7.80;4.32;;;24.60;99.90;;;;;;5023968;28;25134;-66
2022/07/23 11:57:58;;;;;;;4.35;3.47;;;23.60;99.90;;;;;;5021416;28;25071;-70
2022/07/23 12:00:26;;;;;;;9.02;4.13;;;24.00;99.90;;;;;;5018463;28;25072;-67
2022/07/23 12:02:55;;;;;;;4.32;3.92;;;24.80;99.90;;;;;;5018518;28;25061;-67
2022/07/23 12:05:25;;;;;;;6.60;3.53;;;24.70;99.90;;;;;;5014376;28;25056;-67
2022/07/23 12:07:53;;;;;;;8.60;4.88;;;24.20;99.90;;;;;;5019882;28;25123;-66
2022/07/23 12:10:41;;;;;;;9.57;4.70;;;23.70;99.90;;;;;;5021202;28;25090;-67
2022/07/23 12:13:13;;;;;;;4.72;3.70;;;23.40;99.90;;;;;;5027300;28;25112;-67
2022/07/23 12:15:48;;;;;;;8.55;3.03;;;23.70;99.90;;;;;;5018201;28;25052;-67
2022/07/23 12:18:21;;;;;;;5.88;3.10;;;24.00;99.90;;;;;;5021392;28;25147;-68
2022/07/23 12:20:50;;;;;;;8.07;3.35;;;23.80;99.90;;;;;;5026216;28;25154;-68
2022/07/23 12:23:19;;;;;;;8.23;3.42;;;23.80;99.90;;;;;;5027659;28;25156;-67
2022/07/23 12:25:46;;;;;;;3.45;3.00;;;23.90;99.90;;;;;;5022986;28;25104;-67
2022/07/23 12:28:15;;;;;;;5.15;4.40;;;24.40;99.90;;;;;;5020731;28;25088;-67
2022/07/23 12:30:52;;;;;;;6.75;3.90;;;24.40;99.90;;;;;;5030505;28;25077;-67
2022/07/23 12:33:24;;;;;;;4.57;3.20;;;24.40;99.90;;;;;;5026751;28;25056;-67
2022/07/23 12:35:50;;;;;;;3.40;3.10;;;24.00;99.90;;;;;;5021049;28;25055;-67
2022/07/23 12:38:18;;;;;;;3.72;3.28;;;24.10;99.90;;;;;;5026010;28;25098;-67
2022/07/23 12:40:57;;;;;;;5.18;3.13;;;24.10;99.90;;;;;;5028042;28;25136;-68
2022/07/23 12:43:36;;;;;;;5.90;3.55;;;24.50;99.90;;;;;;5022583;28;25083;-67
2022/07/23 12:46:14;;;;;;;5.28;3.42;;;24.70;99.90;;;;;;5026892;28;25068;-66
2022/07/23 12:48:52;;;;;;;5.53;3.33;;;24.70;99.90;;;;;;5025866;28;25125;-66